Time;durP1;ratioP1;P1;durP2;ratioP2;P2;SDS_P1;SDS_P2;PMS_P1;PMS_P2;Temp;Humidity;BMP_temperature;BMP_pressure;BME280_temperature;BME280_humidity;BME280_pressure;Samples;Min_cycle;Max_cycle;Signal;HPM_P1;HPM_P2
2021/08/02 00:00:51;;;;;;;4.90;2.60;;;;;;;17.90;62.10;96391.72;5071333;28;20814;-67
2021/08/02 00:03:26;;;;;;;2.83;2.53;;;;;;;17.74;62.42;96388.59;5071983;28;20516;-66
2021/08/02 00:05:53;;;;;;;3.13;2.00;;;;;;;17.75;63.08;96386.78;5070656;28;20467;-68
2021/08/02 00:08:23;;;;;;;2.40;2.20;;;;;;;17.90;62.48;96392.53;5072315;28;20449;-68
2021/08/02 00:10:50;;;;;;;2.70;2.50;;;;;;;17.88;62.61;96394.59;5067960;28;20420;-68
2021/08/02 00:13:25;;;;;;;2.60;2.40;;;;;;;17.94;62.45;96388.41;5070211;28;20444;-68
2021/08/02 00:15:50;;;;;;;2.47;2.27;;;;;;;18.00;62.50;96399.22;5070460;28;20462;-69
2021/08/02 00:18:16;;;;;;;3.33;2.50;;;;;;;18.10;62.04;96391.56;5069395;28;20436;-68
2021/08/02 00:20:42;;;;;;;3.60;2.43;;;;;;;18.14;61.84;96392.75;5066903;28;20182;-67
2021/08/02 00:23:09;;;;;;;3.30;2.10;;;;;;;17.94;62.24;96393.72;5068807;28;20205;-67
2021/08/02 00:25:36;;;;;;;2.77;2.40;;;;;;;18.11;61.95;96398.50;5067140;28;20198;-68
2021/08/02 00:28:03;;;;;;;2.40;2.20;;;;;;;18.14;61.77;96400.72;5069883;28;20420;-67
2021/08/02 00:30:29;;;;;;;6.40;2.30;;;;;;;18.21;61.63;96398.78;5070761;28;20424;-68
2021/08/02 00:32:54;;;;;;;2.50;2.30;;;;;;;17.98;62.44;96398.63;5069135;28;20429;-68
2021/08/02 00:35:21;;;;;;;3.80;2.63;;;;;;;17.88;63.04;96404.38;5071449;28;20778;-67
2021/08/02 00:37:58;;;;;;;2.67;2.40;;;;;;;17.70;63.70;96397.22;5071558;28;20289;-67
2021/08/02 00:40:49;;;;;;;2.23;2.03;;;;;;;17.64;64.30;96394.38;5071433;28;20408;-68
2021/08/02 00:43:52;;;;;;;2.63;2.43;;;;;;;17.85;63.71;96404.81;5071113;28;20779;-68
2021/08/02 00:46:22;;;;;;;4.33;2.30;;;;;;;17.99;62.89;96397.59;5071803;28;20421;-69
2021/08/02 00:49:02;;;;;;;2.47;2.10;;;;;;;18.15;62.22;96410.25;5072007;28;20424;-69
2021/08/02 00:51:34;;;;;;;2.53;2.33;;;;;;;18.17;62.38;96408.19;5057339;28;20458;-69
2021/08/02 00:54:00;;;;;;;2.80;2.30;;;;;;;18.23;62.11;96406.50;5074966;28;20421;-68
2021/08/02 00:56:30;;;;;;;2.97;2.40;;;;;;;18.24;62.21;96406.31;5069690;28;20479;-68
2021/08/02 00:58:59;;;;;;;2.60;2.40;;;;;;;17.88;63.23;96405.22;5072470;28;20178;-68
2021/08/02 01:01:25;;;;;;;6.30;2.63;;;;;;;17.97;62.96;96403.09;5072153;28;20570;-68
2021/08/02 01:03:53;;;;;;;3.17;2.47;;;;;;;17.80;63.41;96405.47;5064044;28;20485;-69
2021/08/02 01:06:20;;;;;;;2.67;2.40;;;;;;;17.62;63.96;96406.25;5061978;28;20210;-68
2021/08/02 01:08:47;;;;;;;3.20;2.37;;;;;;;17.75;63.60;96405.31;5071624;28;20454;-68
2021/08/02 01:11:14;;;;;;;3.90;2.33;;;;;;;17.57;64.28;96412.19;5071233;28;20421;-67
2021/08/02 01:13:41;;;;;;;3.30;2.60;;;;;;;17.65;63.96;96411.91;5069731;28;20466;-69
2021/08/02 01:16:08;;;;;;;3.83;2.57;;;;;;;17.84;63.68;96405.84;5069913;28;20486;-68
2021/08/02 01:18:34;;;;;;;2.60;2.40;;;;;;;17.90;63.29;96411.06;5071076;28;20761;-68
2021/08/02 01:21:08;;;;;;;8.73;2.40;;;;;;;17.57;64.39;96404.25;5071293;28;20803;-68
2021/08/02 01:23:34;;;;;;;2.93;2.27;;;;;;;17.55;64.39;96408.16;5056219;28;20463;-68
2021/08/02 01:26:03;;;;;;;2.30;2.10;;;;;;;17.42;64.86;96398.44;5066560;28;20472;-67
2021/08/02 01:28:32;;;;;;;4.70;2.50;;;;;;;17.64;63.77;96402.34;5055023;28;20409;-68
2021/08/02 01:31:02;;;;;;;7.03;2.63;;;;;;;17.62;64.10;96400.94;5070936;28;20413;-67
2021/08/02 01:33:32;;;;;;;2.40;2.20;;;;;;;17.79;63.53;96402.03;5054083;28;20421;-67
2021/08/02 01:36:00;;;;;;;2.80;2.50;;;;;;;17.70;63.48;96400.69;5071134;28;20447;-67
2021/08/02 01:38:27;;;;;;;2.90;2.50;;;;;;;17.86;63.07;96401.97;5062184;28;20429;-67
2021/08/02 01:40:53;;;;;;;2.40;2.20;;;;;;;17.94;63.04;96391.06;5070765;28;20456;-68
2021/08/02 01:43:19;;;;;;;3.40;2.23;;;;;;;17.90;63.15;96397.81;5070353;28;20471;-67
2021/08/02 01:45:53;;;;;;;3.13;2.83;;;;;;;18.04;62.67;96397.72;5070626;28;21011;-67
2021/08/02 01:48:22;;;;;;;2.40;2.07;;;;;;;18.01;62.52;96403.50;5070784;28;21038;-67
2021/08/02 01:51:00;;;;;;;3.07;2.30;;;;;;;18.11;62.40;96393.19;5061586;28;20421;-67
2021/08/02 01:53:32;;;;;;;4.00;2.20;;;;;;;18.00;62.57;96400.00;5060759;28;20407;-67
2021/08/02 01:56:20;;;;;;;3.30;2.80;;;;;;;18.04;62.45;96403.03;5065969;28;20771;-67
2021/08/02 01:58:52;;;;;;;3.90;2.80;;;;;;;18.13;62.14;96407.03;5053613;28;20486;-66
2021/08/02 02:01:20;;;;;;;4.40;2.47;;;;;;;18.19;61.84;96400.84;5059713;28;20511;-67
2021/08/02 02:03:45;;;;;;;3.87;2.63;;;;;;;18.24;61.59;96406.31;5063326;28;20853;-66
2021/08/02 02:06:13;;;;;;;2.80;2.43;;;;;;;18.31;61.50;96411.53;5061021;28;20452;-67
2021/08/02 02:08:50;;;;;;;3.80;2.50;;;;;;;18.32;61.55;96412.34;5070466;28;20261;-67
2021/08/02 02:11:16;;;;;;;2.57;2.27;;;;;;;18.37;61.36;96412.50;5069255;28;20915;-68
2021/08/02 02:13:44;;;;;;;3.10;2.20;;;;;;;18.30;61.61;96417.88;5069218;28;20435;-68
2021/08/02 02:16:11;;;;;;;4.70;2.40;;;;;;;18.31;61.60;96418.66;5064614;28;20670;-67
2021/08/02 02:18:39;;;;;;;2.47;2.27;;;;;;;18.28;61.94;96419.94;5070259;28;20810;-69
2021/08/02 02:21:05;;;;;;;2.27;1.90;;;;;;;18.28;61.84;96417.28;5068821;28;20421;-68
2021/08/02 02:23:31;;;;;;;4.90;2.40;;;;;;;18.27;61.89;96416.44;5068740;28;20463;-68
2021/08/02 02:25:57;;;;;;;5.47;3.43;;;;;;;18.26;61.74;96417.50;5062534;28;20445;-68
2021/08/02 02:28:23;;;;;;;2.57;2.10;;;;;;;18.24;61.81;96414.25;5070111;28;20461;-67
2021/08/02 02:30:51;;;;;;;2.30;2.10;;;;;;;18.13;62.33;96417.63;5069190;28;20190;-68
2021/08/02 02:33:17;;;;;;;7.37;2.80;;;;;;;18.07;62.49;96418.50;5067670;28;20494;-68
2021/08/02 02:35:45;;;;;;;2.70;2.50;;;;;;;18.09;62.58;96427.06;5068998;28;20432;-67
2021/08/02 02:38:13;;;;;;;6.60;2.10;;;;;;;18.11;62.53;96430.31;5068900;28;20432;-68
2021/08/02 02:40:43;;;;;;;8.17;2.50;;;;;;;18.11;62.55;96431.09;5069874;28;20773;-67
2021/08/02 02:43:09;;;;;;;2.47;2.10;;;;;;;18.15;62.47;96431.47;5072656;28;20977;-67
2021/08/02 02:45:36;;;;;;;4.37;2.10;;;;;;;18.16;62.42;96430.44;5072915;28;20516;-67
2021/08/02 02:48:03;;;;;;;2.47;2.30;;;;;;;18.10;62.47;96432.13;5074374;28;20427;-66
2021/08/02 02:50:29;;;;;;;3.80;2.23;;;;;;;18.07;62.63;96437.06;5056575;28;20432;-67
2021/08/02 02:52:55;;;;;;;2.73;2.50;;;;;;;18.11;62.73;96440.91;5065172;28;20920;-67
2021/08/02 02:55:23;;;;;;;2.50;2.30;;;;;;;18.11;62.49;96432.94;5067622;28;20450;-67
2021/08/02 02:57:48;;;;;;;3.17;2.53;;;;;;;18.09;62.52;96437.66;5072481;28;20718;-68
2021/08/02 03:00:14;;;;;;;3.90;2.50;;;;;;;18.08;62.79;96441.34;5055624;28;20417;-67
2021/08/02 03:02:40;;;;;;;5.53;2.30;;;;;;;18.04;63.02;96435.66;5065232;28;20197;-67
2021/08/02 03:05:08;;;;;;;5.00;2.73;;;;;;;18.08;62.80;96438.69;5071565;28;20210;-66
2021/08/02 03:07:33;;;;;;;2.60;2.40;;;;;;;18.10;62.72;96432.13;5065500;28;20239;-66
2021/08/02 03:10:00;;;;;;;9.53;2.40;;;;;;;18.09;62.80;96432.34;5072589;28;20421;-69
2021/08/02 03:12:25;;;;;;;2.53;2.33;;;;;;;18.11;62.58;96430.31;5074252;28;20316;-68
2021/08/02 03:14:51;;;;;;;7.07;2.10;;;;;;;18.09;62.56;96440.31;5073874;28;20945;-68
2021/08/02 03:17:16;;;;;;;7.70;3.97;;;;;;;18.05;62.55;96436.47;5073198;28;20182;-67
2021/08/02 03:19:42;;;;;;;4.60;3.10;;;;;;;18.01;62.85;96435.31;5073477;28;20183;-69
2021/08/02 03:22:18;;;;;;;3.03;2.20;;;;;;;18.07;62.65;96439.72;5073338;28;20182;-68
2021/08/02 03:24:46;;;;;;;3.63;2.20;;;;;;;18.11;62.21;96435.59;5071565;28;20248;-68
2021/08/02 03:27:20;;;;;;;4.10;2.00;;;;;;;18.09;61.83;96433.16;5068952;28;20428;-68
2021/08/02 03:29:47;;;;;;;4.67;2.43;;;;;;;18.04;62.04;96434.84;5071757;28;20420;-68
2021/08/02 03:32:16;;;;;;;2.83;2.30;;;;;;;18.06;62.05;96435.44;5071248;28;20417;-68
2021/08/02 03:34:44;;;;;;;4.10;2.23;;;;;;;18.13;62.08;96449.47;5050465;28;20944;-68
2021/08/02 03:37:10;;;;;;;4.50;2.60;;;;;;;18.02;62.45;96440.38;5060040;28;20445;-68
2021/08/02 03:39:37;;;;;;;7.60;2.20;;;;;;;18.16;62.04;96450.84;5071304;28;20476;-67
2021/08/02 03:42:04;;;;;;;5.77;2.23;;;;;;;18.19;61.95;96451.22;5059049;28;20425;-69
2021/08/02 03:44:30;;;;;;;3.40;2.53;;;;;;;18.13;61.99;96454.75;5061206;28;20464;-70
2021/08/02 03:46:56;;;;;;;2.50;2.30;;;;;;;18.12;62.03;96450.50;5056067;28;20802;-68
2021/08/02 03:49:21;;;;;;;2.47;2.27;;;;;;;18.01;62.25;96451.22;5050536;28;20425;-68
2021/08/02 03:51:50;;;;;;;2.93;2.70;;;;;;;17.99;62.55;96455.91;5052099;28;20618;-68
2021/08/02 03:54:16;;;;;;;3.57;2.50;;;;;;;18.08;62.22;96451.94;5049943;28;20199;-68
2021/08/02 03:56:45;;;;;;;2.83;2.30;;;;;;;18.10;62.17;96460.50;5052546;28;20422;-68
2021/08/02 03:59:11;;;;;;;3.60;2.20;;;;;;;18.12;62.08;96455.78;5052048;28;20441;-68
2021/08/02 04:01:41;;;;;;;3.97;2.50;;;;;;;17.98;62.15;96462.22;5045330;28;20433;-68
2021/08/02 04:04:07;;;;;;;3.00;2.47;;;;;;;18.04;61.99;96456.88;5059945;28;20456;-68
2021/08/02 04:06:34;;;;;;;4.93;2.43;;;;;;;18.07;62.03;96464.41;5052337;28;20422;-68
2021/08/02 04:09:00;;;;;;;2.33;2.13;;;;;;;18.05;62.07;96468.28;5054994;28;20204;-68
2021/08/02 04:11:26;;;;;;;3.93;2.43;;;;;;;18.01;61.98;96465.25;5064188;28;20429;-68
2021/08/02 04:13:51;;;;;;;2.33;2.10;;;;;;;18.04;62.02;96472.78;5052128;28;21068;-68
2021/08/02 04:16:17;;;;;;;4.60;2.67;;;;;;;18.08;62.13;96473.16;5051225;28;20207;-69
2021/08/02 04:18:43;;;;;;;2.90;2.60;;;;;;;18.06;62.06;96475.22;5052952;28;20702;-69
2021/08/02 04:21:08;;;;;;;5.83;2.60;;;;;;;17.97;62.47;96477.31;5055540;28;20187;-68
2021/08/02 04:23:34;;;;;;;3.43;2.60;;;;;;;18.05;62.00;96474.41;5052398;28;20242;-68
2021/08/02 04:25:59;;;;;;;3.10;2.20;;;;;;;18.14;61.98;96472.28;5052040;28;20298;-68
2021/08/02 04:28:25;;;;;;;2.20;2.10;;;;;;;18.14;61.87;96479.41;5050549;28;20305;-69
2021/08/02 04:30:51;;;;;;;2.80;2.30;;;;;;;18.15;61.82;96484.50;5051486;28;20228;-67
2021/08/02 04:33:17;;;;;;;3.10;2.30;;;;;;;18.20;61.73;96486.53;5053734;28;20683;-68
2021/08/02 04:35:43;;;;;;;2.70;2.30;;;;;;;18.19;61.83;96491.00;5051491;28;20674;-68
2021/08/02 04:38:08;;;;;;;4.63;2.30;;;;;;;18.24;61.53;96491.16;5059330;28;20439;-68
2021/08/02 04:40:34;;;;;;;3.27;2.30;;;;;;;18.19;61.73;96496.28;5051623;28;20241;-69
2021/08/02 04:42:59;;;;;;;2.90;2.00;;;;;;;18.27;61.68;96496.00;5052390;28;20198;-68
2021/08/02 04:45:25;;;;;;;4.70;3.13;;;;;;;18.25;61.71;96492.78;5051172;28;20225;-69
2021/08/02 04:47:51;;;;;;;4.30;2.67;;;;;;;18.26;61.59;96494.41;5051408;28;20187;-69
2021/08/02 04:50:17;;;;;;;5.70;4.43;;;;;;;18.26;61.74;96494.41;5051238;28;20641;-68
2021/08/02 04:52:44;;;;;;;2.50;2.30;;;;;;;18.29;61.67;96501.09;5051421;28;20270;-68
2021/08/02 04:55:10;;;;;;;5.40;2.43;;;;;;;18.35;61.51;96494.13;5050843;28;20518;-69
2021/08/02 04:57:36;;;;;;;5.40;2.87;;;;;;;18.30;61.46;96504.56;5051679;28;20448;-68
2021/08/02 05:00:03;;;;;;;2.47;2.20;;;;;;;18.35;61.43;96499.41;5051557;28;20421;-67
2021/08/02 05:02:28;;;;;;;3.97;2.47;;;;;;;18.15;61.59;96505.69;5043649;28;20182;-67
2021/08/02 05:04:54;;;;;;;4.33;2.40;;;;;;;18.39;61.25;96505.91;5050715;28;20457;-68
2021/08/02 05:07:19;;;;;;;4.37;2.03;;;;;;;18.34;61.18;96503.91;5051194;28;20190;-68
2021/08/02 05:09:45;;;;;;;2.37;1.90;;;;;;;18.40;60.92;96504.88;5050002;28;20422;-68
2021/08/02 05:12:11;;;;;;;2.80;2.10;;;;;;;18.48;60.45;96509.91;5050722;28;20193;-68
2021/08/02 05:14:36;;;;;;;3.57;2.40;;;;;;;18.28;61.08;96504.78;5051258;28;20203;-68
2021/08/02 05:17:02;;;;;;;3.00;2.53;;;;;;;18.34;60.63;96514.50;5051490;28;20259;-69
2021/08/02 05:19:28;;;;;;;8.30;2.30;;;;;;;18.25;60.82;96514.00;5038334;28;20182;-68
2021/08/02 05:21:53;;;;;;;3.83;2.20;;;;;;;18.37;60.48;96518.59;5055941;28;20273;-68
2021/08/02 05:24:19;;;;;;;4.23;2.00;;;;;;;18.44;60.37;96515.88;5050703;28;20381;-68
2021/08/02 05:26:44;;;;;;;3.40;2.13;;;;;;;18.49;60.17;96522.13;5051281;28;20290;-69
2021/08/02 05:29:10;;;;;;;2.40;2.20;;;;;;;18.54;59.92;96518.81;5050974;28;20234;-68
2021/08/02 05:31:36;;;;;;;4.60;2.20;;;;;;;18.50;59.97;96523.75;5051129;28;20191;-68
2021/08/02 05:34:01;;;;;;;2.30;2.10;;;;;;;18.63;60.13;96525.44;5051072;28;20175;-67
2021/08/02 05:36:27;;;;;;;2.57;2.30;;;;;;;18.63;60.06;96517.50;5051683;28;20262;-67
2021/08/02 05:38:52;;;;;;;3.60;2.37;;;;;;;18.52;60.39;96518.22;5052037;28;20190;-68
2021/08/02 05:41:18;;;;;;;5.17;2.60;;;;;;;18.49;60.56;96514.19;5051177;28;20274;-67
2021/08/02 05:43:43;;;;;;;8.00;2.47;;;;;;;18.60;60.63;96517.13;5046822;28;20206;-68
2021/08/02 05:46:09;;;;;;;2.60;2.07;;;;;;;18.55;60.58;96521.25;5051025;28;20293;-68
2021/08/02 05:48:35;;;;;;;2.50;2.30;;;;;;;18.48;60.11;96515.22;5058292;28;20187;-67
2021/08/02 05:51:00;;;;;;;2.67;2.10;;;;;;;18.69;60.02;96521.09;5049393;28;20187;-68
2021/08/02 05:53:26;;;;;;;5.00;2.57;;;;;;;18.83;59.96;96532.41;5059217;28;20676;-68
2021/08/02 05:55:51;;;;;;;4.70;2.97;;;;;;;18.92;59.76;96527.59;5055726;28;20288;-68
2021/08/02 05:58:17;;;;;;;3.00;2.50;;;;;;;17.87;62.63;96520.19;5071036;28;20182;-67
2021/08/02 06:00:42;;;;;;;9.37;2.80;;;;;;;18.28;61.03;96526.00;5071011;28;20273;-67
2021/08/02 06:03:08;;;;;;;2.10;1.90;;;;;;;18.36;60.97;96522.25;5069591;28;20206;-70
2021/08/02 06:05:34;;;;;;;4.03;2.10;;;;;;;18.57;60.12;96534.31;5070384;28;20214;-67
2021/08/02 06:07:59;;;;;;;2.20;2.00;;;;;;;18.55;60.05;96536.38;5055398;28;20270;-67
2021/08/02 06:10:25;;;;;;;3.87;2.07;;;;;;;18.04;61.61;96538.22;5070349;28;20182;-67
2021/08/02 06:12:50;;;;;;;2.33;2.13;;;;;;;18.00;61.56;96534.41;5064382;28;20189;-67
2021/08/02 06:15:16;;;;;;;3.73;2.10;;;;;;;18.25;61.00;96537.88;5070414;28;20210;-66
2021/08/02 06:17:42;;;;;;;2.27;2.10;;;;;;;18.05;61.88;96537.19;5074764;28;20193;-68
2021/08/02 06:20:09;;;;;;;2.27;2.07;;;;;;;18.00;61.92;96545.00;5064770;28;20428;-66
2021/08/02 06:22:34;;;;;;;2.13;1.73;;;;;;;18.50;60.42;96546.81;5074773;28;20664;-65
2021/08/02 06:25:00;;;;;;;4.43;1.80;;;;;;;18.67;60.00;96550.53;5058845;28;20462;-67
2021/08/02 06:27:30;;;;;;;2.83;2.20;;;;;;;18.91;59.45;96552.50;5074463;28;20186;-67
2021/08/02 06:29:59;;;;;;;3.23;2.43;;;;;;;18.96;58.94;96552.69;5080363;28;20205;-66
2021/08/02 06:32:26;;;;;;;4.30;2.30;;;;;;;19.05;58.61;96555.88;5073579;28;20478;-66
2021/08/02 06:34:52;;;;;;;3.93;1.70;;;;;;;19.28;57.98;96555.19;5080271;28;20536;-66
2021/08/02 06:37:18;;;;;;;8.80;2.10;;;;;;;19.44;57.61;96549.25;5066672;28;21101;-67
2021/08/02 06:39:43;;;;;;;2.60;2.23;;;;;;;19.27;57.53;96557.03;5072788;28;20493;-66
2021/08/02 06:42:10;;;;;;;3.30;2.17;;;;;;;19.28;57.86;96550.69;5074244;28;20273;-66
2021/08/02 06:44:36;;;;;;;2.93;2.43;;;;;;;19.35;57.23;96553.25;5070910;28;20625;-67
2021/08/02 06:47:01;;;;;;;2.37;2.17;;;;;;;19.51;56.92;96554.47;5065982;28;20456;-68
2021/08/02 06:49:27;;;;;;;5.80;2.20;;;;;;;19.78;56.39;96559.41;5072675;28;20179;-67
2021/08/02 06:51:52;;;;;;;6.63;1.90;;;;;;;20.02;55.68;96552.34;5074426;28;20599;-67
2021/08/02 06:54:18;;;;;;;2.80;1.90;;;;;;;19.80;56.13;96552.03;5062257;28;20826;-67
2021/08/02 06:56:44;;;;;;;5.83;1.90;;;;;;;19.88;55.89;96556.25;5062845;28;20186;-66
2021/08/02 06:59:09;;;;;;;6.33;1.90;;;;;;;20.12;55.18;96550.97;5074912;28;20205;-66
2021/08/02 07:01:36;;;;;;;4.30;2.30;;;;;;;20.36;54.62;96552.59;5074912;28;20243;-67
2021/08/02 07:04:02;;;;;;;2.83;2.50;;;;;;;20.57;53.93;96553.06;5073876;28;20246;-67
2021/08/02 07:06:27;;;;;;;5.93;2.40;;;;;;;20.60;53.85;96557.91;5057787;28;20463;-66
2021/08/02 07:08:56;;;;;;;2.77;2.00;;;;;;;20.61;53.84;96564.03;5073564;28;20190;-67
2021/08/02 07:11:22;;;;;;;3.60;2.30;;;;;;;20.52;54.07;96555.63;5061960;28;20214;-67
2021/08/02 07:13:48;;;;;;;1.70;1.60;;;;;;;20.38;54.39;96561.16;5052190;28;20430;-69
2021/08/02 07:16:13;;;;;;;4.13;1.80;;;;;;;20.76;53.32;96552.97;5052219;28;20727;-69
2021/08/02 07:18:39;;;;;;;3.93;2.07;;;;;;;21.03;52.86;96561.25;5064161;28;20187;-69
2021/08/02 07:21:05;;;;;;;7.83;2.07;;;;;;;20.91;52.56;96555.97;5078048;28;20269;-66
2021/08/02 07:23:30;;;;;;;3.67;2.03;;;;;;;21.17;52.22;96564.47;5079464;28;20202;-68
2021/08/02 07:25:56;;;;;;;2.43;1.93;;;;;;;21.02;52.22;96559.63;5060230;28;20213;-68
2021/08/02 07:28:22;;;;;;;2.27;1.70;;;;;;;21.28;51.28;96560.97;5073285;28;20179;-67
2021/08/02 07:30:47;;;;;;;4.10;2.10;;;;;;;21.42;51.17;96564.16;5071976;28;20182;-67
2021/08/02 07:33:13;;;;;;;3.13;1.80;;;;;;;21.38;51.12;96567.53;5064964;28;20239;-68
2021/08/02 07:35:39;;;;;;;3.10;1.80;;;;;;;21.76;50.40;96558.13;5069780;28;20696;-66
2021/08/02 07:38:04;;;;;;;2.10;1.87;;;;;;;21.69;50.39;96560.94;5070476;28;20198;-67
2021/08/02 07:40:30;;;;;;;2.30;2.00;;;;;;;21.96;49.74;96562.19;5072955;28;20182;-67
2021/08/02 07:42:55;;;;;;;4.30;2.10;;;;;;;22.14;49.21;96561.97;5073659;28;20258;-67
2021/08/02 07:45:21;;;;;;;7.10;2.50;;;;;;;22.11;48.99;96567.00;5070751;28;20256;-67
2021/08/02 07:47:47;;;;;;;2.03;1.83;;;;;;;22.24;48.46;96551.44;5067612;28;20619;-68
2021/08/02 07:50:15;;;;;;;3.67;2.10;;;;;;;21.46;50.16;96567.16;5071984;28;20193;-68
2021/08/02 07:52:43;;;;;;;8.27;1.77;;;;;;;21.55;50.41;96568.38;5072858;28;20289;-68
2021/08/02 07:55:10;;;;;;;8.43;1.83;;;;;;;21.52;50.85;96568.88;5055772;28;20462;-67
2021/08/02 07:57:35;;;;;;;2.80;2.03;;;;;;;21.23;51.11;96568.84;5066093;28;20898;-69
2021/08/02 08:00:06;;;;;;;5.93;2.03;;;;;;;20.62;53.07;96565.66;5072640;28;20467;-69
2021/08/02 08:02:31;;;;;;;2.60;1.80;;;;;;;21.59;50.34;96566.06;5072444;28;20505;-68
2021/08/02 08:04:57;;;;;;;7.73;2.10;;;;;;;21.74;49.60;96569.03;5071666;28;20453;-73
2021/08/02 08:07:22;;;;;;;2.93;2.10;;;;;;;22.05;49.42;96566.88;5071538;28;20193;-69
2021/08/02 08:09:48;;;;;;;4.00;1.83;;;;;;;22.55;47.80;96562.63;5072657;28;20719;-68
2021/08/02 08:12:14;;;;;;;5.37;1.90;;;;;;;22.76;47.17;96568.25;5071661;28;20178;-67
2021/08/02 08:14:39;;;;;;;3.30;2.17;;;;;;;23.01;45.86;96567.78;5072074;28;20366;-68
2021/08/02 08:17:05;;;;;;;2.63;1.73;;;;;;;22.70;46.40;96569.22;5062644;28;20190;-67
2021/08/02 08:19:31;;;;;;;3.57;2.20;;;;;;;22.09;48.22;96568.03;5042395;28;20183;-69
2021/08/02 08:21:57;;;;;;;2.43;1.60;;;;;;;22.17;47.62;96569.50;5065967;28;20648;-68
2021/08/02 08:24:24;;;;;;;7.73;1.60;;;;;;;22.84;46.00;96565.16;5063593;28;20496;-68
2021/08/02 08:26:49;;;;;;;1.87;1.57;;;;;;;22.77;46.76;96564.53;5054934;28;20948;-68
2021/08/02 08:29:15;;;;;;;1.80;1.70;;;;;;;23.14;45.73;96563.94;5068772;28;20493;-69
2021/08/02 08:31:41;;;;;;;2.47;2.00;;;;;;;23.69;44.45;96571.25;5071634;28;20277;-66
2021/08/02 08:34:07;;;;;;;3.13;1.80;;;;;;;23.01;45.47;96564.31;5071375;28;20206;-68
2021/08/02 08:36:32;;;;;;;1.93;1.83;;;;;;;23.37;45.07;96563.97;5071805;28;20174;-68
2021/08/02 08:38:58;;;;;;;7.27;1.60;;;;;;;23.13;45.48;96562.31;5070476;28;20198;-68
2021/08/02 08:41:24;;;;;;;3.00;1.60;;;;;;;23.58;44.35;96565.78;5071618;28;20181;-68
2021/08/02 08:43:51;;;;;;;3.43;1.80;;;;;;;22.86;46.29;96560.38;5070259;28;20209;-68
2021/08/02 08:46:21;;;;;;;1.90;1.80;;;;;;;23.16;45.39;96564.50;5070524;28;20221;-68
2021/08/02 08:48:47;;;;;;;2.27;1.43;;;;;;;23.29;45.16;96563.34;5071611;28;20428;-68
2021/08/02 08:51:14;;;;;;;2.20;1.90;;;;;;;23.71;43.85;96564.56;5068257;28;20520;-68
2021/08/02 08:53:44;;;;;;;2.90;1.60;;;;;;;24.14;42.56;96561.25;5058257;28;20511;-68
2021/08/02 08:56:16;;;;;;;1.83;1.60;;;;;;;23.95;41.95;96561.56;5055601;28;20560;-68
2021/08/02 08:58:43;;;;;;;1.70;1.60;;;;;;;23.22;42.78;96564.56;5070867;28;20911;-69
2021/08/02 09:01:08;;;;;;;3.10;1.60;;;;;;;24.11;41.80;96556.41;5070057;28;20927;-69
2021/08/02 09:03:34;;;;;;;2.30;1.60;;;;;;;24.40;41.33;96567.59;5070990;28;20453;-70
2021/08/02 09:06:04;;;;;;;3.20;1.70;;;;;;;24.68;41.07;96554.91;5070606;28;20843;-69
2021/08/02 09:08:30;;;;;;;1.90;1.40;;;;;;;24.80;40.82;96546.72;5070807;28;20692;-69
2021/08/02 09:10:57;;;;;;;3.40;1.60;;;;;;;25.26;39.80;96546.91;5069477;28;20424;-68
2021/08/02 09:13:34;;;;;;;4.20;1.63;;;;;;;24.12;42.09;96553.47;5070890;28;20197;-68
2021/08/02 09:16:25;;;;;;;1.83;1.73;;;;;;;24.67;41.34;96545.25;5070964;28;20985;-68
2021/08/02 09:19:03;;;;;;;4.10;2.00;;;;;;;24.48;41.26;96545.72;5063424;28;20448;-68
2021/08/02 09:21:52;;;;;;;3.97;2.30;;;;;;;23.76;42.80;96553.94;5062725;28;20416;-68
2021/08/02 09:24:34;;;;;;;3.73;2.40;;;;;;;24.98;40.40;96548.16;5066649;28;20467;-68
2021/08/02 09:27:00;;;;;;;2.07;1.60;;;;;;;25.42;40.00;96539.75;5063455;28;20515;-67
2021/08/02 09:29:31;;;;;;;5.20;1.70;;;;;;;24.96;41.73;96543.03;5070647;28;20433;-68
2021/08/02 09:31:57;;;;;;;3.27;1.70;;;;;;;25.61;39.91;96541.94;5070676;28;20421;-67
2021/08/02 09:34:23;;;;;;;2.83;1.60;;;;;;;25.81;38.93;96540.34;5070699;28;20424;-67
2021/08/02 09:36:58;;;;;;;1.67;1.47;;;;;;;25.22;39.67;96540.44;5070068;28;20943;-68
2021/08/02 09:39:32;;;;;;;5.50;1.83;;;;;;;26.42;38.03;96533.38;5070542;28;20193;-68
2021/08/02 09:42:02;;;;;;;4.77;1.60;;;;;;;24.69;41.81;96544.00;5070862;28;20439;-69
2021/08/02 09:44:28;;;;;;;7.67;1.87;;;;;;;25.57;39.88;96546.22;5049484;28;20464;-68
2021/08/02 09:47:06;;;;;;;1.60;1.37;;;;;;;25.29;39.82;96535.66;5062659;28;20444;-68
2021/08/02 09:49:44;;;;;;;8.83;1.63;;;;;;;25.77;38.54;96523.97;5055919;28;20529;-69
2021/08/02 09:52:10;;;;;;;2.20;1.63;;;;;;;26.33;38.70;96514.34;5073976;28;21041;-68
2021/08/02 09:54:36;;;;;;;2.73;1.70;;;;;;;25.77;38.45;96523.97;5064836;28;20456;-68
2021/08/02 09:57:01;;;;;;;2.13;1.60;;;;;;;26.28;38.52;96517.03;5066284;28;20292;-68
2021/08/02 09:59:27;;;;;;;1.73;1.63;;;;;;;25.91;38.71;96514.34;5073370;28;20228;-67
2021/08/02 10:01:54;;;;;;;3.00;1.67;;;;;;;25.57;39.25;96524.75;5074626;28;20232;-69
2021/08/02 10:04:21;;;;;;;2.70;1.60;;;;;;;25.82;38.83;96515.94;5073431;28;20206;-68
2021/08/02 10:06:47;;;;;;;2.13;1.63;;;;;;;24.51;41.08;96522.94;5074818;28;20874;-66
2021/08/02 10:09:14;;;;;;;2.50;1.30;;;;;;;24.10;40.37;96528.00;5074616;28;20451;-69
2021/08/02 10:11:41;;;;;;;1.73;1.10;;;;;;;23.92;39.86;96517.41;5074530;28;21042;-69
2021/08/02 10:14:08;;;;;;;2.13;1.40;;;;;;;24.50;38.06;96514.13;5073453;28;20438;-69
2021/08/02 10:16:34;;;;;;;3.00;1.60;;;;;;;25.48;36.60;96511.06;5074528;28;20421;-67
2021/08/02 10:19:09;;;;;;;1.77;1.20;;;;;;;26.09;35.27;96512.16;5066706;28;20424;-67
2021/08/02 10:21:38;;;;;;;1.90;1.50;;;;;;;26.35;36.24;96510.31;5041467;28;20424;-68
2021/08/02 10:24:14;;;;;;;1.50;1.20;;;;;;;25.88;36.58;96509.50;5065799;28;20464;-68
2021/08/02 10:26:40;;;;;;;2.43;1.27;;;;;;;26.65;34.81;96505.13;5061359;28;20420;-66
2021/08/02 10:29:08;;;;;;;1.33;1.23;;;;;;;26.83;35.98;96504.56;5074391;28;20927;-68
2021/08/02 10:31:46;;;;;;;4.20;1.33;;;;;;;26.86;34.41;96500.53;5073210;28;20420;-69
2021/08/02 10:34:14;;;;;;;2.10;1.13;;;;;;;27.12;34.63;96509.28;5073518;28;20424;-66
2021/08/02 10:36:39;;;;;;;2.97;1.20;;;;;;;26.96;34.93;96505.06;5069267;28;20499;-70
2021/08/02 10:39:05;;;;;;;2.87;1.53;;;;;;;26.70;35.89;96518.56;5068814;28;20444;-67
2021/08/02 10:41:32;;;;;;;2.30;1.10;;;;;;;26.99;35.21;96515.25;5074180;28;20205;-68
2021/08/02 10:44:10;;;;;;;1.50;1.40;;;;;;;26.71;35.51;96520.19;5066109;28;20214;-68
2021/08/02 10:46:36;;;;;;;1.43;1.33;;;;;;;27.21;35.61;96527.53;5060323;28;20452;-68
2021/08/02 10:49:15;;;;;;;1.77;1.20;;;;;;;26.22;38.04;96535.03;5072115;28;20447;-69
2021/08/02 10:51:51;;;;;;;1.70;1.10;;;;;;;25.23;38.47;96541.28;5061186;28;20194;-69
2021/08/02 10:54:17;;;;;;;4.17;1.20;;;;;;;25.02;38.72;96535.81;5070410;28;20421;-68
2021/08/02 10:56:48;;;;;;;1.50;1.23;;;;;;;24.07;40.14;96538.16;5059880;28;20770;-69
2021/08/02 10:59:18;;;;;;;2.50;1.13;;;;;;;22.80;42.59;96552.53;5073681;28;20460;-69
2021/08/02 11:01:51;;;;;;;1.73;1.00;;;;;;;22.45;43.94;96542.97;5065246;28;20448;-68
2021/08/02 11:04:18;;;;;;;1.57;1.10;;;;;;;21.75;45.93;96545.84;5066242;28;20487;-68
2021/08/02 11:06:45;;;;;;;2.00;1.10;;;;;;;21.47;51.49;96555.44;5056684;28;20433;-68
2021/08/02 11:09:11;;;;;;;1.60;1.33;;;;;;;20.91;52.46;96550.63;5055902;28;20446;-69
2021/08/02 11:11:37;;;;;;;4.30;1.40;;;;;;;21.70;50.24;96546.56;5062320;28;20510;-68
2021/08/02 11:14:20;;;;;;;1.50;1.33;;;;;;;21.29;50.02;96551.94;5064653;28;20458;-70
2021/08/02 11:16:50;;;;;;;3.30;1.33;;;;;;;22.24;48.30;96537.31;5068078;28;20422;-69
2021/08/02 11:19:20;;;;;;;1.57;1.10;;;;;;;22.33;46.47;96537.69;5063527;28;20429;-68
2021/08/02 11:21:48;;;;;;;1.30;1.20;;;;;;;22.37;44.98;96536.97;5073439;28;20467;-68
2021/08/02 11:24:14;;;;;;;1.93;1.60;;;;;;;23.77;42.84;96544.84;5070310;28;20453;-69
2021/08/02 11:26:53;;;;;;;1.43;1.10;;;;;;;24.76;40.07;96535.69;5060089;28;20420;-69
2021/08/02 11:29:26;;;;;;;1.40;1.30;;;;;;;25.36;39.65;96534.59;5071834;28;20413;-69
2021/08/02 11:31:59;;;;;;;1.53;1.43;;;;;;;25.61;38.22;96547.31;5072362;28;20460;-69
2021/08/02 11:34:26;;;;;;;1.40;1.10;;;;;;;25.80;37.23;96547.59;5069252;28;20416;-68
2021/08/02 11:37:03;;;;;;;3.83;1.30;;;;;;;26.09;36.56;96539.00;5067843;28;20429;-68